Time;durP1;ratioP1;P1;durP2;ratioP2;P2;SDS_P1;SDS_P2;PMS_P1;PMS_P2;Temp;Humidity;BMP_temperature;BMP_pressure;BME280_temperature;BME280_humidity;BME280_pressure;Samples;Min_cycle;Max_cycle;Signal;HPM_P1;HPM_P2
2021/04/20 00:01:05;;;;;;;63.17;37.43;;;;;;;5.51;100.00;96283.72;4973862;28;20853;-84
2021/04/20 00:03:32;;;;;;;72.27;37.73;;;;;;;5.55;100.00;96294.81;4974426;28;20451;-84
2021/04/20 00:05:59;;;;;;;69.50;36.43;;;;;;;5.59;100.00;96287.25;4974843;28;20529;-84
2021/04/20 00:08:25;;;;;;;74.33;41.10;;;;;;;5.60;100.00;96288.69;4974309;28;20529;-84
2021/04/20 00:10:51;;;;;;;73.73;38.07;;;;;;;5.61;100.00;96287.44;4973713;28;20555;-84
2021/04/20 00:13:17;;;;;;;80.77;40.50;;;;;;;5.61;100.00;96279.41;4973674;28;20430;-85
2021/04/20 00:15:44;;;;;;;76.90;42.87;;;;;;;5.59;100.00;96279.94;4973878;28;20827;-84
2021/04/20 00:18:10;;;;;;;69.03;39.07;;;;;;;5.48;100.00;96279.38;4973072;28;20481;-85
2021/04/20 00:20:36;;;;;;;66.40;39.83;;;;;;;5.46;100.00;96273.78;4973913;28;20469;-84
2021/04/20 00:23:05;;;;;;;79.20;40.77;;;;;;;5.50;100.00;96272.28;4974226;28;20563;-85
2021/04/20 00:25:31;;;;;;;75.73;39.30;;;;;;;5.51;100.00;96268.38;4974989;28;20861;-84
2021/04/20 00:27:57;;;;;;;72.80;39.57;;;;;;;5.58;100.00;96269.72;4977391;28;20524;-86
2021/04/20 00:30:24;;;;;;;72.80;40.70;;;;;;;5.59;100.00;96263.88;4977056;28;20562;-86
2021/04/20 00:32:50;;;;;;;74.87;41.10;;;;;;;5.60;100.00;96268.00;4976891;28;20537;-86
2021/04/20 00:35:16;;;;;;;74.60;40.67;;;;;;;5.62;100.00;96262.13;4977223;28;20940;-87
2021/04/20 00:37:43;;;;;;;69.30;39.50;;;;;;;5.63;100.00;96267.00;4977364;28;20450;-87
2021/04/20 00:40:13;;;;;;;75.37;42.27;;;;;;;5.64;100.00;96265.75;4976940;28;20508;-87
2021/04/20 00:42:49;;;;;;;72.90;40.93;;;;;;;5.64;100.00;96265.03;4977091;28;20452;-85
2021/04/20 00:45:16;;;;;;;78.03;42.60;;;;;;;5.60;100.00;96262.66;4976987;28;20582;-84
2021/04/20 00:47:42;;;;;;;69.07;41.10;;;;;;;5.49;100.00;96254.03;4977332;28;20429;-84
2021/04/20 00:50:11;;;;;;;75.53;42.97;;;;;;;5.38;100.00;96254.94;4976860;28;20480;-84
2021/04/20 00:52:37;;;;;;;73.50;40.10;;;;;;;5.36;100.00;96246.69;4977673;28;20517;-84
2021/04/20 00:55:03;;;;;;;82.37;43.23;;;;;;;5.38;100.00;96249.59;4977097;28;20501;-87
2021/04/20 00:57:30;;;;;;;75.10;40.73;;;;;;;5.34;100.00;96252.56;4977256;28;20472;-87
2021/04/20 00:59:56;;;;;;;78.10;41.00;;;;;;;5.36;100.00;96249.34;4977298;28;20520;-86
2021/04/20 01:02:23;;;;;;;74.47;40.97;;;;;;;5.36;100.00;96246.69;4977373;28;20502;-86
2021/04/20 01:04:49;;;;;;;79.97;42.37;;;;;;;5.38;100.00;96241.56;4977732;28;20497;-87
2021/04/20 01:07:16;;;;;;;72.27;40.30;;;;;;;5.42;100.00;96243.94;4977617;28;20521;-87
2021/04/20 01:09:43;;;;;;;69.10;41.03;;;;;;;5.43;100.00;96248.06;4977411;28;20491;-87
2021/04/20 01:12:09;;;;;;;89.97;44.40;;;;;;;5.38;100.00;96244.97;4976966;28;20490;-86
2021/04/20 01:14:37;;;;;;;80.83;44.50;;;;;;;5.29;100.00;96242.63;4976651;28;20551;-87
2021/04/20 01:17:03;;;;;;;70.30;40.80;;;;;;;5.24;100.00;96242.72;4976366;28;20460;-87
2021/04/20 01:19:31;;;;;;;74.27;39.40;;;;;;;5.23;100.00;96235.94;4976879;28;20552;-87
2021/04/20 01:21:58;;;;;;;71.93;41.13;;;;;;;5.24;100.00;96240.78;4976464;28;20442;-87
2021/04/20 01:24:28;;;;;;;74.07;39.33;;;;;;;5.26;100.00;96238.31;4976551;28;20454;-86
2021/04/20 01:26:55;;;;;;;78.10;42.80;;;;;;;5.20;100.00;96236.97;4976951;28;20442;-88
2021/04/20 01:29:22;;;;;;;81.00;42.87;;;;;;;5.14;100.00;96234.34;4977289;28;20454;-85
2021/04/20 01:31:49;;;;;;;80.67;42.73;;;;;;;5.24;100.00;96234.69;4975965;28;20568;-85
2021/04/20 01:34:15;;;;;;;101.13;44.37;;;;;;;5.30;100.00;96232.66;4976245;28;20433;-85
2021/04/20 01:36:42;;;;;;;68.60;40.20;;;;;;;5.24;100.00;96232.03;4976285;28;20537;-84
2021/04/20 01:39:09;;;;;;;85.03;43.20;;;;;;;5.15;100.00;96233.13;4976360;28;20834;-85
2021/04/20 01:41:37;;;;;;;71.63;41.17;;;;;;;5.11;100.00;96226.59;4976131;28;20452;-85
2021/04/20 01:44:05;;;;;;;363.87;54.97;;;;;;;5.07;100.00;96234.22;4976015;28;20527;-85
2021/04/20 01:46:31;;;;;;;316.63;50.07;;;;;;;5.12;100.00;96236.06;4976020;28;20513;-84
2021/04/20 01:48:57;;;;;;;277.83;49.60;;;;;;;5.13;100.00;96245.56;4977034;28;20457;-87
2021/04/20 01:51:24;;;;;;;240.20;51.90;;;;;;;5.19;100.00;96238.91;4976928;28;20477;-88
2021/04/20 01:53:52;;;;;;;159.83;40.60;;;;;;;5.27;100.00;96247.06;4977055;28;20469;-86
2021/04/20 01:56:19;;;;;;;197.33;43.37;;;;;;;5.23;100.00;96243.97;4976312;28;20442;-85
2021/04/20 01:58:47;;;;;;;269.63;48.23;;;;;;;5.20;100.00;96250.31;4976801;28;20432;-85
2021/04/20 02:01:15;;;;;;;121.07;41.87;;;;;;;5.15;100.00;96246.50;4985713;28;20461;-85
2021/04/20 02:03:44;;;;;;;233.60;46.63;;;;;;;5.10;100.00;96246.56;4997092;28;20458;-85
2021/04/20 02:06:11;;;;;;;200.27;44.37;;;;;;;5.11;100.00;96248.72;4997030;28;20465;-86
2021/04/20 02:08:38;;;;;;;90.40;38.20;;;;;;;5.12;100.00;96247.50;4997167;28;20497;-84
2021/04/20 02:11:07;;;;;;;150.80;45.03;;;;;;;5.18;100.00;96248.16;4981065;28;20536;-87
2021/04/20 02:13:33;;;;;;;224.20;45.73;;;;;;;5.23;100.00;96250.00;4975866;28;20466;-86
2021/04/20 02:16:01;;;;;;;146.23;38.17;;;;;;;5.16;100.00;96247.94;4975772;28;20569;-85
2021/04/20 02:18:29;;;;;;;277.43;48.00;;;;;;;5.12;100.00;96246.78;4975843;28;20442;-86
2021/04/20 02:20:56;;;;;;;186.70;38.57;;;;;;;4.98;100.00;96243.28;4976481;28;20516;-87
2021/04/20 02:23:22;;;;;;;164.03;36.30;;;;;;;5.04;100.00;96232.53;4975216;28;20440;-85
2021/04/20 02:25:50;;;;;;;161.73;35.00;;;;;;;4.97;100.00;96241.88;4976076;28;20438;-85
2021/04/20 02:28:17;;;;;;;114.60;32.00;;;;;;;4.99;100.00;96242.06;4976501;28;20454;-85
2021/04/20 02:30:43;;;;;;;256.70;39.20;;;;;;;4.87;100.00;96246.09;4981322;28;20553;-83
2021/04/20 02:33:11;;;;;;;114.03;32.90;;;;;;;4.77;100.00;96239.66;4976146;28;20456;-84
2021/04/20 02:35:37;;;;;;;119.87;31.90;;;;;;;4.74;100.00;96238.72;4975962;28;20437;-83
2021/04/20 02:38:04;;;;;;;67.93;29.07;;;;;;;4.71;100.00;96245.06;4976050;28;20493;-84
2021/04/20 02:40:32;;;;;;;85.57;30.97;;;;;;;4.78;100.00;96247.19;4975657;28;20424;-85
2021/04/20 02:42:58;;;;;;;123.03;32.13;;;;;;;4.70;100.00;96248.97;4986358;28;20947;-85
2021/04/20 02:45:26;;;;;;;73.83;30.07;;;;;;;4.58;100.00;96244.25;4992339;28;20516;-85
2021/04/20 02:47:54;;;;;;;124.83;29.97;;;;;;;4.54;100.00;96238.47;4992027;28;20457;-85
2021/04/20 02:50:24;;;;;;;122.70;29.73;;;;;;;4.50;100.00;96230.03;4990835;28;20497;-86
2021/04/20 02:52:52;;;;;;;72.83;27.83;;;;;;;4.56;100.00;96231.41;4990392;28;20434;-86
2021/04/20 02:55:19;;;;;;;55.43;26.37;;;;;;;4.57;100.00;96235.53;4975231;28;20474;-86
2021/04/20 02:57:48;;;;;;;37.03;25.10;;;;;;;4.53;100.00;96231.69;4974803;28;20541;-86
2021/04/20 03:00:16;;;;;;;38.17;25.47;;;;;;;4.55;100.00;96232.63;4975461;28;20501;-87
2021/04/20 03:02:45;;;;;;;32.20;24.07;;;;;;;4.62;100.00;96229.41;4975412;28;20906;-86
2021/04/20 03:05:13;;;;;;;39.77;26.03;;;;;;;4.66;100.00;96229.84;4975350;28;20501;-87
2021/04/20 03:07:40;;;;;;;44.20;29.40;;;;;;;4.67;100.00;96225.19;4975673;28;20552;-87
2021/04/20 03:10:08;;;;;;;44.10;28.17;;;;;;;4.77;100.00;96215.59;4975015;28;20453;-85
2021/04/20 03:12:36;;;;;;;42.77;28.20;;;;;;;4.77;100.00;96231.66;4974608;28;20486;-85
2021/04/20 03:15:03;;;;;;;45.47;27.33;;;;;;;4.75;100.00;96221.47;4973797;28;20481;-86
2021/04/20 03:17:29;;;;;;;48.30;28.93;;;;;;;4.79;100.00;96219.22;4974860;28;20434;-85
2021/04/20 03:19:56;;;;;;;48.63;29.90;;;;;;;4.86;100.00;96224.00;4974512;28;20533;-85
2021/04/20 03:22:24;;;;;;;43.30;28.30;;;;;;;4.86;100.00;96221.31;4974554;28;20530;-84
2021/04/20 03:25:22;;;;;;;45.80;28.43;;;;;;;4.89;100.00;96227.59;4974432;28;20477;-85
2021/04/20 03:27:51;;;;;;;43.70;26.57;;;;;;;4.90;100.00;96217.63;4975746;28;20449;-85
2021/04/20 03:30:19;;;;;;;37.60;24.60;;;;;;;4.91;100.00;96219.81;4974436;28;20438;-86
2021/04/20 03:32:52;;;;;;;41.27;25.60;;;;;;;4.91;100.00;96214.47;4975076;28;20433;-85
2021/04/20 03:35:24;;;;;;;47.70;27.47;;;;;;;4.93;100.00;96213.97;4974293;28;20554;-85
2021/04/20 03:37:56;;;;;;;41.70;25.67;;;;;;;4.91;100.00;96219.81;4974361;28;20939;-84
2021/04/20 03:40:24;;;;;;;55.47;27.43;;;;;;;4.89;100.00;96214.25;4975006;28;20434;-84
2021/04/20 03:42:55;;;;;;;42.43;24.90;;;;;;;4.86;100.00;96218.66;4974667;28;20470;-82
2021/04/20 03:45:25;;;;;;;37.40;24.37;;;;;;;4.88;100.00;96220.09;4974513;28;20508;-85
2021/04/20 03:47:55;;;;;;;37.67;24.07;;;;;;;4.82;100.00;96204.16;4974732;28;20421;-84
2021/04/20 03:50:26;;;;;;;32.53;24.40;;;;;;;4.83;100.00;96205.56;4974217;28;20457;-85
2021/04/20 03:52:56;;;;;;;35.50;25.83;;;;;;;4.83;100.00;96205.56;4974413;28;20446;-84
2021/04/20 03:55:27;;;;;;;38.67;25.83;;;;;;;4.80;100.00;96211.94;4974765;28;20544;-84
2021/04/20 03:57:55;;;;;;;37.57;25.07;;;;;;;4.77;100.00;96210.25;4974511;28;20494;-87
2021/04/20 04:00:23;;;;;;;43.23;28.27;;;;;;;4.82;100.00;96204.84;4977154;28;20453;-87
2021/04/20 04:02:53;;;;;;;52.23;24.60;;;;;;;4.91;100.00;96211.06;4979347;28;20462;-87
2021/04/20 04:05:28;;;;;;;41.37;25.77;;;;;;;4.82;100.00;96202.16;4978715;28;20437;-87
2021/04/20 04:07:56;;;;;;;38.40;25.50;;;;;;;4.74;100.00;96203.97;4978874;28;20482;-88
2021/04/20 04:10:25;;;;;;;41.70;27.10;;;;;;;4.76;100.00;96204.19;4979574;28;20450;-88
2021/04/20 04:12:54;;;;;;;37.47;25.07;;;;;;;4.79;100.00;96216.53;4983587;28;20548;-86
2021/04/20 04:15:21;;;;;;;50.73;28.00;;;;;;;4.76;100.00;96211.50;4998561;28;20500;-87
2021/04/20 04:17:49;;;;;;;43.93;24.50;;;;;;;4.77;100.00;96207.59;4998959;28;20495;-86
2021/04/20 04:20:18;;;;;;;45.03;26.00;;;;;;;4.73;100.00;96210.53;4999109;28;20487;-87
2021/04/20 04:22:49;;;;;;;44.40;26.80;;;;;;;4.71;100.00;96210.34;5000195;28;20520;-87
2021/04/20 04:25:18;;;;;;;41.10;25.60;;;;;;;4.75;100.00;96202.03;5008405;28;20507;-85
2021/04/20 04:27:49;;;;;;;49.80;24.00;;;;;;;4.71;100.00;96210.34;5017577;28;20449;-85
2021/04/20 04:30:16;;;;;;;44.47;24.50;;;;;;;4.74;100.00;96203.25;5018318;28;20422;-88
2021/04/20 04:32:44;;;;;;;82.70;27.17;;;;;;;4.69;100.00;96204.78;5004462;28;20475;-84
2021/04/20 04:35:11;;;;;;;83.97;25.93;;;;;;;4.56;100.00;96214.66;4996935;28;20525;-85
2021/04/20 04:37:39;;;;;;;110.47;25.23;;;;;;;4.42;100.00;96215.78;4997914;28;20440;-87
2021/04/20 04:40:07;;;;;;;88.27;26.40;;;;;;;4.40;100.00;96224.28;4997807;28;20795;-87
2021/04/20 04:42:34;;;;;;;53.67;25.40;;;;;;;4.46;100.00;96224.94;4996931;28;20487;-84
2021/04/20 04:45:04;;;;;;;42.90;23.40;;;;;;;4.50;100.00;96214.00;4997549;28;20479;-85
2021/04/20 04:47:32;;;;;;;36.47;24.87;;;;;;;4.52;100.00;96219.53;4997456;28;20422;-88
2021/04/20 04:50:00;;;;;;;37.27;24.43;;;;;;;4.59;100.00;96221.66;4998462;28;20433;-87
2021/04/20 04:52:27;;;;;;;42.00;24.10;;;;;;;4.64;100.00;96223.53;4998505;28;20994;-88
2021/04/20 04:54:54;;;;;;;35.47;22.53;;;;;;;4.61;100.00;96222.59;4998506;28;20479;-86
2021/04/20 04:57:22;;;;;;;36.83;23.30;;;;;;;4.65;100.00;96220.38;4998182;28;20449;-86
2021/04/20 04:59:48;;;;;;;34.40;20.07;;;;;;;4.68;100.00;96215.97;5014444;28;20429;-84
2021/04/20 05:02:16;;;;;;;57.53;21.43;;;;;;;4.77;100.00;96215.59;5017235;28;20453;-84
2021/04/20 05:04:42;;;;;;;30.93;21.87;;;;;;;4.80;100.00;96217.28;4999386;28;20482;-86
2021/04/20 05:07:09;;;;;;;31.10;19.57;;;;;;;4.79;100.00;96223.88;4997198;28;20413;-85
2021/04/20 05:09:35;;;;;;;34.63;20.70;;;;;;;4.74;100.00;96219.28;4981120;28;20502;-87
2021/04/20 05:12:03;;;;;;;36.40;23.07;;;;;;;4.58;100.00;96220.19;4979003;28;20491;-87
2021/04/20 05:14:29;;;;;;;33.10;18.13;;;;;;;4.60;100.00;96223.84;4978869;28;20482;-89
2021/04/20 05:16:56;;;;;;;27.23;19.23;;;;;;;4.92;100.00;96223.22;4977850;28;20549;-84
2021/04/20 05:19:28;;;;;;;26.20;18.00;;;;;;;5.04;100.00;96229.88;4978289;28;20923;-84
2021/04/20 05:21:56;;;;;;;30.43;19.20;;;;;;;5.18;100.00;96231.38;4978509;28;20446;-85
2021/04/20 05:24:22;;;;;;;29.97;20.30;;;;;;;5.25;100.00;96222.78;4977658;28;21013;-85
2021/04/20 05:26:48;;;;;;;31.10;19.10;;;;;;;5.36;100.00;96228.69;4977923;28;20421;-84
2021/04/20 05:29:15;;;;;;;26.70;17.77;;;;;;;5.40;100.00;96237.16;4977995;28;20800;-84
2021/04/20 05:31:43;;;;;;;44.17;18.23;;;;;;;5.46;100.00;96229.03;4978825;28;20828;-84
2021/04/20 05:34:10;;;;;;;33.80;19.27;;;;;;;5.52;100.00;96231.63;4980799;28;20504;-84
2021/04/20 05:36:38;;;;;;;30.63;19.57;;;;;;;5.57;100.00;96223.53;4978304;28;20917;-85
2021/04/20 05:39:06;;;;;;;32.37;20.97;;;;;;;5.71;100.00;96229.63;4978321;28;20502;-86
2021/04/20 05:41:35;;;;;;;32.90;20.50;;;;;;;5.73;100.00;96230.56;4981398;28;20435;-86
2021/04/20 05:44:04;;;;;;;29.60;20.40;;;;;;;5.83;99.60;96230.91;4985232;28;20911;-86
2021/04/20 05:46:31;;;;;;;28.23;18.50;;;;;;;6.08;99.23;96237.59;4995574;28;20409;-85
2021/04/20 05:48:57;;;;;;;26.60;18.27;;;;;;;6.27;97.46;96232.88;4992970;28;20413;-85
2021/04/20 05:51:24;;;;;;;26.93;17.57;;;;;;;6.80;96.67;96235.53;4978734;28;20486;-84
2021/04/20 05:53:53;;;;;;;25.00;16.40;;;;;;;7.17;93.52;96234.56;4978423;28;20458;-85
2021/04/20 05:56:23;;;;;;;26.50;17.20;;;;;;;7.53;91.38;96236.22;4978236;28;20458;-88
2021/04/20 05:58:53;;;;;;;24.83;14.90;;;;;;;7.61;90.74;96235.56;4980000;28;20446;-88
2021/04/20 06:01:21;;;;;;;25.13;17.60;;;;;;;7.90;90.12;96231.69;4979055;28;20439;-87
2021/04/20 06:03:47;;;;;;;19.20;14.57;;;;;;;8.29;88.91;96236.16;4979771;28;20519;-88
2021/04/20 06:06:15;;;;;;;17.73;14.37;;;;;;;8.18;88.86;96239.78;4978175;28;20474;-88
2021/04/20 06:08:43;;;;;;;20.37;16.73;;;;;;;8.37;88.89;96242.28;4978936;28;20468;-89
2021/04/20 06:11:11;;;;;;;21.20;16.60;;;;;;;8.69;88.10;96248.03;4979596;28;20456;-86
2021/04/20 06:13:38;;;;;;;22.00;16.93;;;;;;;9.22;86.71;96256.38;4977530;28;20462;-87
2021/04/20 06:16:06;;;;;;;23.50;18.30;;;;;;;9.73;84.88;96264.41;4977497;28;20776;-90
2021/04/20 06:18:33;;;;;;;39.07;28.93;;;;;;;10.19;82.88;96257.09;4981188;28;20470;-90
2021/04/20 06:21:01;;;;;;;31.60;24.13;;;;;;;10.27;82.29;96254.41;4979849;28;20408;-88
2021/04/20 06:23:29;;;;;;;28.33;19.90;;;;;;;10.35;82.03;96263.94;4978804;28;20458;-88
2021/04/20 06:28:47;;;;;;;29.83;21.53;;;;;;;10.36;82.40;96264.66;4996403;28;20443;-88
2021/04/20 06:31:15;;;;;;;32.10;23.17;;;;;;;10.63;82.00;96263.72;4979141;28;20492;-87
2021/04/20 06:33:42;;;;;;;30.67;22.13;;;;;;;11.45;80.64;96260.56;4978450;28;20456;-84
2021/04/20 06:36:09;;;;;;;30.23;21.60;;;;;;;12.36;77.48;96263.41;4977643;28;20569;-87
2021/04/20 06:38:37;;;;;;;37.03;25.70;;;;;;;12.57;76.22;96265.75;4978624;28;20503;-85
2021/04/20 06:41:06;;;;;;;29.90;23.10;;;;;;;12.99;73.85;96268.41;4977795;28;20937;-85
2021/04/20 06:43:42;;;;;;;29.53;21.27;;;;;;;13.41;72.19;96274.44;4977449;28;20450;-86
2021/04/20 06:46:20;;;;;;;30.17;21.77;;;;;;;13.59;70.37;96273.16;4977226;28;20498;-88
2021/04/20 06:48:52;;;;;;;23.33;18.97;;;;;;;13.37;71.41;96274.84;4979941;28;20434;-88
2021/04/20 06:51:22;;;;;;;24.20;16.73;;;;;;;13.69;68.77;96279.31;4979312;28;20478;-88
2021/04/20 06:53:53;;;;;;;19.63;15.50;;;;;;;13.16;69.17;96276.53;4977232;28;20462;-87
2021/04/20 06:56:29;;;;;;;20.30;15.77;;;;;;;12.66;71.17;96282.09;4979223;28;20934;-86
2021/04/20 06:59:07;;;;;;;18.90;16.07;;;;;;;12.35;72.73;96280.91;4978810;28;20446;-87
2021/04/20 07:01:37;;;;;;;22.07;18.37;;;;;;;12.89;70.64;96279.88;4978738;28;20506;-89
2021/04/20 07:04:13;;;;;;;22.83;17.50;;;;;;;13.18;70.35;96279.44;4979676;28;20497;-90
2021/04/20 07:06:46;;;;;;;23.97;17.80;;;;;;;12.99;71.25;96279.97;4981957;28;20469;-89
2021/04/20 07:09:18;;;;;;;22.13;16.27;;;;;;;12.94;69.99;96275.50;4979201;28;20455;-90
2021/04/20 07:11:47;;;;;;;22.57;15.90;;;;;;;12.90;70.87;96277.91;4982932;28;20474;-88
2021/04/20 07:14:27;;;;;;;23.87;19.17;;;;;;;12.86;71.02;96272.88;4982762;28;20489;-89
2021/04/20 07:17:23;;;;;;;20.90;16.10;;;;;;;13.02;71.53;96272.72;4983390;28;20465;-91
2021/04/20 07:20:03;;;;;;;21.63;15.67;;;;;;;13.27;70.83;96276.78;4962586;28;20849;-92
2021/04/20 07:22:46;;;;;;;20.17;16.53;;;;;;;13.93;67.38;96288.59;4962272;29;20486;-91
2021/04/20 07:25:25;;;;;;;25.60;17.20;;;;;;;14.37;66.35;96280.38;4960747;29;20447;-91
2021/04/20 07:28:02;;;;;;;25.67;18.13;;;;;;;14.77;65.54;96282.59;4963775;29;20477;-91
2021/04/20 07:30:32;;;;;;;24.30;19.30;;;;;;;15.06;63.74;96288.06;4961130;28;20438;-89
2021/04/20 07:33:34;;;;;;;26.90;20.30;;;;;;;15.36;63.05;96290.19;4964142;28;20462;-92
2021/04/20 07:36:09;;;;;;;22.50;17.67;;;;;;;15.44;63.47;96283.28;4975149;28;20466;-89
2021/04/20 07:38:43;;;;;;;32.87;22.23;;;;;;;15.62;62.66;96289.31;4965553;29;20772;-93
2021/04/20 07:41:16;;;;;;;32.67;22.33;;;;;;;14.81;62.82;96294.47;4967899;29;20451;-90
2021/04/20 07:43:57;;;;;;;31.17;21.63;;;;;;;15.06;63.84;96286.06;4964358;29;20447;-89
2021/04/20 07:46:30;;;;;;;37.10;24.60;;;;;;;14.99;63.85;96290.34;4965868;29;20494;-86
2021/04/20 07:49:03;;;;;;;39.50;25.63;;;;;;;15.01;63.46;96295.19;4988779;28;20449;-89
2021/04/20 07:51:37;;;;;;;30.50;22.07;;;;;;;14.90;63.44;96301.19;4992290;28;20466;-91
2021/04/20 07:54:09;;;;;;;36.90;24.73;;;;;;;15.12;62.75;96288.47;4986579;28;20462;-91
2021/04/20 07:56:45;;;;;;;32.60;24.27;;;;;;;15.18;63.93;96283.47;4998192;28;20426;-89
2021/04/20 07:59:18;;;;;;;33.97;24.37;;;;;;;15.53;62.60;96287.34;4998281;28;20458;-92
2021/04/20 08:01:53;;;;;;;32.30;25.50;;;;;;;15.26;62.90;96284.75;4998580;28;20426;-87
2021/04/20 08:04:57;;;;;;;34.57;23.17;;;;;;;15.48;63.29;96282.91;4990403;28;20504;-90
2021/04/20 08:07:38;;;;;;;30.23;23.40;;;;;;;15.56;63.21;96285.47;4976758;28;20450;-89
2021/04/20 08:10:08;;;;;;;30.70;23.70;;;;;;;15.28;63.13;96282.19;4963111;29;20443;-88
2021/04/20 08:12:47;;;;;;;34.17;23.60;;;;;;;15.40;63.79;96282.31;4963749;28;21007;-88
2021/04/20 08:15:22;;;;;;;31.73;23.83;;;;;;;15.12;63.27;96272.88;4962531;28;20494;-90
2021/04/20 08:18:01;;;;;;;37.30;25.03;;;;;;;15.10;63.16;96272.72;4970803;28;20556;-92
2021/04/20 08:20:30;;;;;;;36.33;24.67;;;;;;;15.45;62.14;96273.84;4978012;28;20434;-91
2021/04/20 08:22:58;;;;;;;30.33;23.87;;;;;;;15.05;63.40;96275.75;4995409;28;20445;-90
2021/04/20 08:25:29;;;;;;;33.03;22.70;;;;;;;15.34;63.50;96271.00;5004716;28;20580;-91
2021/04/20 08:28:01;;;;;;;30.77;22.73;;;;;;;15.45;63.38;96276.56;5004690;28;20449;-90
2021/04/20 08:30:36;;;;;;;34.23;22.90;;;;;;;15.46;63.72;96282.72;5002159;28;20418;-92
2021/04/20 08:33:08;;;;;;;34.17;24.83;;;;;;;15.40;61.01;96274.16;5006523;28;20461;-91
2021/04/20 08:35:38;;;;;;;26.37;22.17;;;;;;;14.88;60.70;96266.44;5000832;28;20481;-89
2021/04/20 08:38:22;;;;;;;31.83;23.93;;;;;;;14.66;62.12;96272.97;5005136;28;20464;-88
2021/04/20 08:40:53;;;;;;;34.03;24.60;;;;;;;14.53;64.05;96270.69;5001944;28;20455;-88
2021/04/20 08:43:40;;;;;;;30.63;22.80;;;;;;;14.24;65.80;96267.88;5000028;28;20468;-87
2021/04/20 08:46:18;;;;;;;34.50;22.80;;;;;;;14.53;64.29;96267.97;5001519;28;20449;-91
2021/04/20 08:48:51;;;;;;;31.60;22.40;;;;;;;14.38;61.96;96268.22;5001742;28;20849;-87
2021/04/20 08:51:28;;;;;;;31.70;22.13;;;;;;;14.17;61.67;96265.25;5007947;28;20476;-85
2021/04/20 08:54:18;;;;;;;29.60;21.70;;;;;;;14.05;62.21;96265.09;5000663;28;20449;-89
2021/04/20 09:00:13;;;;;;;29.13;21.53;;;;;;;14.23;62.88;96266.44;5001728;28;20942;-87
2021/04/20 09:03:00;;;;;;;29.33;23.57;;;;;;;13.75;63.20;96268.94;5002055;28;20437;-88
2021/04/20 09:05:31;;;;;;;29.50;21.30;;;;;;;13.89;63.65;96261.88;5004293;28;20530;-86
2021/04/20 10:06:26;;;;;;;20.30;14.47;;;;;;;12.96;62.88;96254.00;4985520;28;20480;-89
2021/04/20 10:09:09;;;;;;;18.60;13.30;;;;;;;13.12;62.41;96249.88;4988641;28;20497;-94
2021/04/20 10:11:43;;;;;;;24.07;17.20;;;;;;;13.31;62.53;96255.41;5038679;28;20482;-91
2021/04/20 10:14:19;;;;;;;18.93;15.10;;;;;;;13.37;61.63;96253.16;5076378;28;20883;-86
2021/04/20 10:16:57;;;;;;;22.50;15.03;;;;;;;13.49;61.23;96247.97;5079496;28;20781;-93
2021/04/20 10:19:30;;;;;;;19.00;14.03;;;;;;;13.77;59.97;96255.53;5081866;28;20406;-89
2021/04/20 10:22:16;;;;;;;24.37;17.27;;;;;;;13.81;59.27;96250.41;5084386;28;20524;-90
2021/04/20 10:28:14;;;;;;;20.90;15.13;;;;;;;14.45;58.06;96254.53;5093508;28;20416;-89
2021/04/20 10:30:46;;;;;;;23.20;13.67;;;;;;;14.78;57.00;96241.28;5089243;28;20464;-90
2021/04/20 10:33:19;;;;;;;21.70;15.70;;;;;;;14.93;57.41;96246.44;5089711;28;20553;-90
2021/04/20 10:35:47;;;;;;;24.77;15.30;;;;;;;14.87;56.20;96243.28;5087946;28;20500;-88
2021/04/20 10:41:38;;;;;;;14.67;11.20;;;;;;;15.15;53.28;96238.41;5098132;28;20409;-85
2021/04/20 10:44:11;;;;;;;14.13;10.03;;;;;;;15.21;53.00;96241.53;5096429;28;20528;-86
2021/04/20 10:46:39;;;;;;;11.37;7.87;;;;;;;15.48;50.46;96220.34;5079239;28;20913;-86
2021/04/20 10:49:07;;;;;;;16.07;10.67;;;;;;;15.73;50.83;96226.13;5077431;28;20468;-88
2021/04/20 10:54:58;;;;;;;18.27;13.97;;;;;;;15.48;54.33;96225.78;5070661;28;20807;-87
2021/04/20 10:57:28;;;;;;;14.07;10.50;;;;;;;15.75;51.46;96225.56;5077345;28;20463;-86
2021/04/20 11:03:22;;;;;;;17.40;11.40;;;;;;;15.49;51.27;96216.34;5076029;28;20397;-87
2021/04/20 11:05:48;;;;;;;13.53;11.27;;;;;;;15.78;50.92;96225.13;5079235;28;20497;-87
2021/04/20 11:08:22;;;;;;;17.83;13.10;;;;;;;16.07;49.85;96219.56;5091354;28;20547;-87
2021/04/20 11:10:48;;;;;;;15.07;11.50;;;;;;;16.15;51.14;96203.06;5096953;28;20464;-88
2021/04/20 11:13:15;;;;;;;15.87;11.90;;;;;;;15.84;50.25;96203.06;5096694;28;20508;-87
2021/04/20 11:15:41;;;;;;;16.20;11.87;;;;;;;15.05;50.82;96210.50;5099585;28;20532;-87
2021/04/20 11:18:12;;;;;;;14.97;11.13;;;;;;;14.64;52.36;96204.94;5097516;28;20437;-85
2021/04/20 11:20:41;;;;;;;16.63;12.27;;;;;;;14.92;52.66;96206.94;5096471;28;20432;-86
2021/04/20 11:23:23;;;;;;;16.63;12.17;;;;;;;15.35;52.95;96201.72;5096528;28;20440;-87
2021/04/20 11:29:16;;;;;;;22.40;13.67;;;;;;;15.28;52.54;96187.03;5098515;28;20845;-87
2021/04/20 11:31:47;;;;;;;24.17;14.77;;;;;;;15.41;52.47;96192.00;5098320;28;20473;-87
2021/04/20 11:37:35;;;;;;;17.90;12.27;;;;;;;15.18;51.96;96185.63;5097629;28;20400;-86
2021/04/20 11:40:06;;;;;;;16.70;12.47;;;;;;;14.93;52.81;96194.09;5099246;28;20500;-87
2021/04/20 11:42:39;;;;;;;17.10;12.20;;;;;;;15.02;53.68;96196.06;5098754;28;20444;-86
2021/04/20 11:45:14;;;;;;;17.77;13.03;;;;;;;14.71;54.16;96187.81;5098313;28;20476;-87
2021/04/20 11:48:00;;;;;;;19.73;13.63;;;;;;;14.47;55.09;96186.78;5098036;28;20906;-87
2021/04/20 11:50:29;;;;;;;19.23;13.80;;;;;;;14.62;55.39;96190.50;5099281;28;20436;-86
2021/04/20 11:52:57;;;;;;;17.77;13.00;;;;;;;14.60;55.19;96184.94;5099491;28;20494;-86
2021/04/20 11:55:29;;;;;;;23.70;14.27;;;;;;;14.74;55.48;96181.22;5101443;28;20464;-87
2021/04/20 11:58:02;;;;;;;20.87;14.33;;;;;;;14.62;54.59;96182.38;5101361;28;20436;-86
2021/04/20 12:00:31;;;;;;;17.73;13.47;;;;;;;14.31;55.88;96172.03;5100553;28;20780;-87
2021/04/20 12:06:19;;;;;;;15.80;12.53;;;;;;;14.00;55.79;96173.84;5100663;28;20498;-87
2021/04/20 12:12:08;;;;;;;18.33;12.77;;;;;;;14.51;53.41;96169.34;5100227;28;20578;-87
2021/04/20 12:14:37;;;;;;;16.57;11.97;;;;;;;14.76;52.56;96170.50;5098382;28;20559;-86
2021/04/20 12:20:29;;;;;;;19.30;12.40;;;;;;;14.60;53.12;96172.06;5112587;28;20399;-93
2021/04/20 12:22:56;;;;;;;16.77;12.07;;;;;;;14.84;52.65;96168.38;5112636;28;20437;-86
2021/04/20 12:25:23;;;;;;;17.40;13.13;;;;;;;15.10;52.11;96155.16;5105588;28;20566;-88
2021/04/20 12:27:52;;;;;;;15.10;11.07;;;;;;;15.20;49.67;96162.00;5107944;28;20450;-89
2021/04/20 12:30:20;;;;;;;14.70;11.10;;;;;;;15.10;49.68;96155.88;5103533;28;20463;-85
2021/04/20 12:36:25;;;;;;;15.17;10.80;;;;;;;15.17;49.24;96146.13;5109511;28;20391;-92
2021/04/20 12:38:54;;;;;;;15.00;10.87;;;;;;;15.41;49.43;96148.47;5112855;28;20484;-92
2021/04/20 12:41:21;;;;;;;12.87;10.20;;;;;;;15.78;49.28;96151.69;5114786;28;20479;-93
2021/04/20 12:43:50;;;;;;;14.17;10.27;;;;;;;16.11;47.20;96151.06;5114814;28;20454;-90
2021/04/20 12:46:18;;;;;;;13.10;9.63;;;;;;;15.75;46.27;96144.69;5111026;28;20513;-91
2021/04/20 12:48:46;;;;;;;15.10;10.17;;;;;;;15.88;46.49;96140.75;5109715;28;20444;-90
2021/04/20 12:51:17;;;;;;;11.37;9.67;;;;;;;15.58;47.20;96134.00;5106344;28;20915;-87
2021/04/20 12:53:47;;;;;;;12.73;10.43;;;;;;;15.42;47.72;96143.75;5095846;28;20496;-87
2021/04/20 12:56:20;;;;;;;13.80;10.10;;;;;;;15.46;46.61;96131.16;5102857;28;20444;-86
2021/04/20 13:02:10;;;;;;;9.53;6.83;;;;;;;15.79;44.02;96133.31;5107458;28;20424;-90
2021/04/20 13:04:38;;;;;;;8.70;6.07;;;;;;;16.06;42.95;96134.47;5109847;28;20512;-92
2021/04/20 13:07:07;;;;;;;11.80;8.60;;;;;;;15.96;44.27;96125.66;5109051;28;20515;-90
2021/04/20 13:09:37;;;;;;;11.10;8.90;;;;;;;15.74;44.58;96128.91;5108136;28;20455;-90
2021/04/20 13:12:06;;;;;;;16.17;9.30;;;;;;;15.84;44.59;96124.16;5107998;28;20875;-90